Nearby METAR Reports

 

KSJC - San Jose, California, USA
Distance from station: NØ 14km
Oppdatert: 22/04/2021 03:53
Few Clouds
Few Clouds
 Vind fra NNV
Vind: NNV 26 km/h
Temperatur: 14°C
Duggpunkt: 8°C
Fuktighet: 67%
Barometer: 1010.8 hPa
Clouds: Few Clouds
Visibility: 16 km
Cloud details: Few Clouds 183 m
2021/04/22 01:53 KSJC 220153Z 34014KT 10SM FEW006 14/08 A2985 RMK AO2 SLP107 T01390078
KNUQ - Moffett Nas/Mtn, California, USA
Distance from station: N 14km
Oppdatert: 14/04/2021 00:40
NOT Current

 
2021/04/13 22:40 KNUQ 132240Z AUTO RMK AO2 PNO PWINO TSNO
 
KPAO - Palo Alto, California, USA
Distance from station: NNV 23km
Oppdatert: 22/04/2021 04:47
Klart
Klart
 Vind fra NNV
Vind: NNV 19 km/h
Temperatur: 11°C
Duggpunkt: 7°C
Fuktighet: 77%
Barometer: 1011.2 hPa
Clouds: Klart
Visibility: 16 km
2021/04/22 02:47 KPAO 220247Z 33010KT 10SM SKC 11/07 A2986
KRHV - San Jose/Reid, California, USA
Distance from station: ØNØ 19km
Oppdatert: 22/04/2021 04:47
Klart
Klart
 Vind fra NNV
Vind: NNV 22 km/h
Temperatur: 13°C
Duggpunkt: 7°C
Fuktighet: 67%
Barometer: 1011.5 hPa
Clouds: Klart
Visibility: 16 km
2021/04/22 02:47 KRHV 220247Z 33012KT 10SM SKC 13/07 A2987
 
KOAK - Oakland, California, USA
Distance from station: NNV 50km
Oppdatert: 22/04/2021 03:53
Overskyet
Overskyet
 Vind fra V
Vind: V 19 km/h
Temperatur: 12°C
Duggpunkt: 7°C
Fuktighet: 72%
Barometer: 1011.5 hPa
Clouds: Overskyet
Visibility: 11 km
Cloud details: Overskyet 427 m
2021/04/22 01:53 KOAK 220153Z 27010KT 7SM OVC014 12/07 A2987 RMK AO2 SLP115 T01170072
KSQL - San Carlos Airpo, California, USA
Distance from station: NV 34km
Oppdatert: 22/04/2021 04:47
Hovedsaklig skyet
Hovedsaklig skyet
 Vind fra VSV
Vind: VSV 17 km/h
Temperatur: 11°C
Duggpunkt: 7°C
Fuktighet: 77%
Barometer: 1011.5 hPa
Clouds: Hovedsaklig skyet
Visibility: 16 km
Cloud details: Hovedsaklig skyet 3139 m
2021/04/22 02:47 KSQL 220247Z 25009KT 10SM BKN103 11/07 A2987
 
KSFO - San Francisco, California, USA
Distance from station: NV 49km
Oppdatert: 22/04/2021 03:56
Hovedsaklig skyet
Hovedsaklig skyet
 Vind fra V
Vind: V 24 km/h, Vindkast: 35 km/h
Temperatur: 12°C
Duggpunkt: 7°C
Fuktighet: 72%
Barometer: 1011.2 hPa
Clouds: Hovedsaklig skyet
Visibility: 16 km
Cloud details: Few Clouds 213 m
Hovedsaklig skyet 396 m
2021/04/22 01:56 KSFO 220156Z 27013G19KT 10SM FEW007 BKN013 12/07 A2986 RMK AO2 SLP111 T01220072
KE16 - San Martin, California, USA
Distance from station: ØSØ 43km
Oppdatert: 22/04/2021 04:35
Hovedsaklig skyet
Hovedsaklig skyet
 Vind fra SSØ
Vind: SSØ 15 km/h
Temperatur: 12°C
Duggpunkt: 8°C
Fuktighet: 77%
Barometer: 1011.9 hPa
Clouds: Hovedsaklig skyet
Visibility: 16 km
Cloud details: Hovedsaklig skyet 488 m
2021/04/22 02:35 KE16 220235Z AUTO 16008KT 10SM BKN016 12/08 A2988 RMK AO2 PWINO PNO
 
KWVI - Watsonville, California, USA
Distance from station: SSØ 44km
Oppdatert: 22/04/2021 04:38
Overskyet
Overskyet
 Vind fra SV
Vind: SV 7 km/h
Temperatur: 10°C
Wind Chill: 9°C
Duggpunkt: 8°C
Fuktighet: 88%
Barometer: 1012.5 hPa
Clouds: Overskyet
Visibility: 14 km
Cloud details: Overskyet 274 m
2021/04/22 02:38 KWVI 220238Z AUTO 22004KT 9SM OVC009 10/08 A2990 RMK AO2 T01000083
KHAF - Half Moon Bay, California, USA
Distance from station: VNV 50km
Oppdatert: 22/04/2021 04:35
Mist, Overskyet
Mist, Overskyet
 Vind fra VNV
Vind: VNV 9 km/h
Temperatur: 10°C
Wind Chill: 9°C
Duggpunkt: 8°C
Fuktighet: 88%
Barometer: 1012.2 hPa
Oversikt: Mist
Clouds: Overskyet
Visibility: 5 km
Cloud details: Overskyet 335 m
2021/04/22 02:35 KHAF 220235Z AUTO 29005KT 3SM BR OVC011 10/08 A2989 RMK AO2
 
KHWD - Hayward, California, USA
Distance from station: N 44km
Oppdatert: 22/04/2021 03:54
Hovedsaklig skyet
Hovedsaklig skyet
 Vind fra VNV
Vind: VNV 22 km/h
Temperatur: 12°C
Duggpunkt: 7°C
Fuktighet: 72%
Barometer: 1011.2 hPa
Clouds: Hovedsaklig skyet
Visibility: 13 km
Cloud details: Hovedsaklig skyet 396 m
2021/04/22 01:54 KHWD 220154Z 30012KT 8SM BKN013 12/07 A2986 RMK AO2 SLP122 T01170067
KLVK - Livermore, California, USA
Distance from station: NNØ 51km
Oppdatert: 22/04/2021 03:53
Klart
Klart
 Vind fra VNV
Vind: VNV 30 km/h, Vindkast: 39 km/h
Temperatur: 13°C
Duggpunkt: 7°C
Fuktighet: 67%
Barometer: 1009.8 hPa
Clouds: Klart
Visibility: 14 km
2021/04/22 01:53 KLVK 220153Z 29016G21KT 9SM CLR 13/07 A2982 RMK AO2 SLP096 T01280067